Terminal Aerodrome Forecast
Issued by NWS

Home | Current Version | Previous Version | Text Only | Print | Product List | Glossary On
Versions: 1 2 3 4 5 6 7 8 9 10 11 12 13 14 15 16 17 18 19 20 21 22
000
FTUS43 KPAH 182333
TAFCGI
TAF
KCGI 182333Z 1900/1924 14005KT P6SM SCT060 BKN250
     FM190300 08004KT P6SM BKN050
     FM190600 11007KT 4SM -SHRA BR OVC025
     FM190900 13005KT 3SM -TSRA BR OVC012CB
     FM191600 22007KT P6SM OVC040=

USA.gov is the U.S. government's official web portal to all federal, state and local government web resources and services.